Aérodrome :
LOGIN :

S'inscrire | Disclaimer

   EN    FR    IT 

 










Légende :    VFR   VFR Marginal   IFR   IFR Intensif   IFR Très Intensif
Visi : 
Plafond : 
>= 8 km
>= 3000ft
5 à 8 km
1000 à 3000 ft
1500m à 5 km
500 à 1000 ft
800 à 1500m
200 à 500 ft
< 800m
< 200 ft
Symboles :   Orages  Brouillard  Fortes neiges  Fortes précipitations  Vent > 20 kt
SIGMETs :   Divers  Orages  Givrage  Turbulence  Onde Orograph.  Cendres Volcan.






- Altitude de l'aérodrome : 56 ft
- Code IATA : TRD


ENVA - Trondheim , Værnes

DERNIER METAR :
  • 051620Z 24014KT 9999 -DZ FEW006 BKN020CB 02/M00 Q0982 TEMPO 26022G35KT 3000 SHRASN BKN012CB RMK WIND 670FT 23021G33KT

METARs EXPIRÉS :
  • 051550Z 23014KT 9999 -DZ FEW011 SCT057 BKN076 03/M01 Q0983 TEMPO 26022G35KT 3000 SHRASN BKN012CB RMK WIND 670FT 25027KT
  • 051520Z 24016KT 9999 -RA FEW007 SCT020 BKN032 02/M00 Q0983 TEMPO 26022G35KT 3000 SHRAGS BKN012CB RMK WIND 670FT /////KT
  • 051450Z 25016KT 1600 R09/P2000N R27/P2000N -RASN BKN002 OVC020CB 01/M00 Q0983 WS R27 TEMPO 26022G35KT 3000 SHRAGS BKN012CB RMK WIND 670FT 26019G30KT
  • 051420Z 23017KT 9999 -RA FEW002 SCT014 BKN060 03/M00 Q0983 WS R27 TEMPO 26022G35KT 3000 SHRAGS BKN012CB RMK WIND 670FT 24020KT
  • 051350Z 24014KT 9999 -RA FEW002 SCT014 BKN066 02/01 Q0982 WS R27 TEMPO 26025G35KT 3000 SHRAGS BKN012CB RMK WIND 670FT VRB17G46KT

TAF AMD TAF ENVA
Valide du 05 à 14h jusqu'au 06 à 12h UTC


0514/0612 20015KT 9999 FEW020 BKN050
TEMPO 0514/0518 26022G35KT
TEMPO 0514/0603 1200 SHSNRA BKN003 SCT012CB
PROB40
TEMPO 0514/0516 TSGS



MET'MAP, la Météo Aéronautique d'un coup d'oeil ! - Copyright ORBIFLY Décembre 2007 - Disclaimer

ORBIFLY MET'MAP TEAM :

Programmation & Développement : Alexandra Zaïnal
Sur une idée originale de : Baudouin d'Aumeries
Assistance à la programmation : Marc-Olivier Méhu
Soutien technique & logistique : Manuel Goepfert

Contact : metmap@orbifly.com




SOURCES & CREDITS :

   NOAA